sensor_id;sensor_type;location;lat;lon;timestamp;pressure;altitude;pressure_sealevel;temperature;humidity
6565;BME280;3316;44.118;27.258;2023-12-20T00:01:19;101431.84;;;5.41;100.00
6565;BME280;3316;44.118;27.258;2023-12-20T00:03:44;101405.34;;;5.25;100.00
6565;BME280;3316;44.118;27.258;2023-12-20T00:06:10;101418.53;;;5.31;100.00
6565;BME280;3316;44.118;27.258;2023-12-20T00:08:37;101421.28;;;5.37;100.00
6565;BME280;3316;44.118;27.258;2023-12-20T00:11:02;101394.91;;;5.25;100.00
6565;BME280;3316;44.118;27.258;2023-12-20T00:13:28;101374.81;;;5.21;100.00
6565;BME280;3316;44.118;27.258;2023-12-20T00:15:53;101399.41;;;5.30;100.00
6565;BME280;3316;44.118;27.258;2023-12-20T00:18:18;101405.59;;;5.35;100.00
6565;BME280;3316;44.118;27.258;2023-12-20T00:20:44;101411.84;;;5.42;100.00
6565;BME280;3316;44.118;27.258;2023-12-20T00:23:09;101402.38;;;5.47;100.00
6565;BME280;3316;44.118;27.258;2023-12-20T00:25:35;101392.84;;;5.48;100.00
6565;BME280;3316;44.118;27.258;2023-12-20T00:28:00;101392.09;;;5.55;100.00
6565;BME280;3316;44.118;27.258;2023-12-20T00:30:26;101384.16;;;5.50;100.00
6565;BME280;3316;44.118;27.258;2023-12-20T00:32:51;101380.88;;;5.59;100.00
6565;BME280;3316;44.118;27.258;2023-12-20T00:35:17;101368.00;;;5.66;100.00
6565;BME280;3316;44.118;27.258;2023-12-20T00:37:43;101359.47;;;5.73;100.00
6565;BME280;3316;44.118;27.258;2023-12-20T00:40:09;101371.72;;;5.77;100.00
6565;BME280;3316;44.118;27.258;2023-12-20T00:42:35;101360.63;;;5.87;100.00
6565;BME280;3316;44.118;27.258;2023-12-20T00:45:03;101327.09;;;5.65;100.00
6565;BME280;3316;44.118;27.258;2023-12-20T00:47:30;101343.72;;;5.72;100.00
6565;BME280;3316;44.118;27.258;2023-12-20T00:49:55;101349.72;;;5.66;100.00
6565;BME280;3316;44.118;27.258;2023-12-20T00:52:21;101346.19;;;5.64;100.00
6565;BME280;3316;44.118;27.258;2023-12-20T00:54:48;101341.81;;;5.62;100.00
6565;BME280;3316;44.118;27.258;2023-12-20T00:57:13;101329.72;;;5.67;100.00
6565;BME280;3316;44.118;27.258;2023-12-20T00:59:39;101334.06;;;5.66;100.00
6565;BME280;3316;44.118;27.258;2023-12-20T01:02:04;101329.78;;;5.70;100.00
6565;BME280;3316;44.118;27.258;2023-12-20T01:04:29;101329.38;;;5.92;100.00
6565;BME280;3316;44.118;27.258;2023-12-20T01:06:55;101324.00;;;6.29;100.00
6565;BME280;3316;44.118;27.258;2023-12-20T01:09:20;101318.63;;;6.20;100.00
6565;BME280;3316;44.118;27.258;2023-12-20T01:11:49;101316.91;;;6.22;100.00
6565;BME280;3316;44.118;27.258;2023-12-20T01:14:14;101312.78;;;6.35;100.00
6565;BME280;3316;44.118;27.258;2023-12-20T01:16:40;101321.59;;;6.41;100.00
6565;BME280;3316;44.118;27.258;2023-12-20T01:19:05;101302.28;;;6.85;100.00
6565;BME280;3316;44.118;27.258;2023-12-20T01:21:30;101307.63;;;6.94;100.00
6565;BME280;3316;44.118;27.258;2023-12-20T01:23:56;101303.88;;;6.74;100.00
6565;BME280;3316;44.118;27.258;2023-12-20T01:26:21;101295.03;;;6.68;100.00
6565;BME280;3316;44.118;27.258;2023-12-20T01:28:47;101299.22;;;6.58;100.00
6565;BME280;3316;44.118;27.258;2023-12-20T01:31:12;101294.03;;;6.60;100.00
6565;BME280;3316;44.118;27.258;2023-12-20T01:33:38;101292.41;;;6.66;100.00
6565;BME280;3316;44.118;27.258;2023-12-20T01:36:04;101291.00;;;6.88;100.00
6565;BME280;3316;44.118;27.258;2023-12-20T01:38:29;101285.16;;;7.05;100.00
6565;BME280;3316;44.118;27.258;2023-12-20T01:40:54;101277.38;;;7.11;100.00
6565;BME280;3316;44.118;27.258;2023-12-20T01:43:20;101275.81;;;7.26;100.00
6565;BME280;3316;44.118;27.258;2023-12-20T01:45:46;101260.81;;;7.11;100.00
6565;BME280;3316;44.118;27.258;2023-12-20T01:48:12;101240.66;;;7.05;100.00
6565;BME280;3316;44.118;27.258;2023-12-20T01:50:39;101261.72;;;7.16;100.00
6565;BME280;3316;44.118;27.258;2023-12-20T01:53:07;101261.59;;;7.04;100.00
6565;BME280;3316;44.118;27.258;2023-12-20T01:55:35;101259.75;;;6.98;100.00
6565;BME280;3316;44.118;27.258;2023-12-20T01:58:02;101263.88;;;6.83;100.00
6565;BME280;3316;44.118;27.258;2023-12-20T02:00:29;101232.97;;;6.56;100.00
6565;BME280;3316;44.118;27.258;2023-12-20T02:02:55;101261.06;;;6.69;100.00
6565;BME280;3316;44.118;27.258;2023-12-20T02:05:21;101251.28;;;6.56;100.00
6565;BME280;3316;44.118;27.258;2023-12-20T02:07:47;101245.00;;;6.44;100.00
6565;BME280;3316;44.118;27.258;2023-12-20T02:10:13;101252.84;;;6.45;100.00
6565;BME280;3316;44.118;27.258;2023-12-20T02:12:38;101247.50;;;6.38;100.00
6565;BME280;3316;44.118;27.258;2023-12-20T02:15:04;101242.00;;;6.22;100.00
6565;BME280;3316;44.118;27.258;2023-12-20T02:17:31;101243.66;;;6.17;100.00
6565;BME280;3316;44.118;27.258;2023-12-20T02:19:57;101231.38;;;6.10;100.00
6565;BME280;3316;44.118;27.258;2023-12-20T02:22:22;101226.88;;;6.05;100.00
6565;BME280;3316;44.118;27.258;2023-12-20T02:24:47;101193.66;;;5.95;100.00
6565;BME280;3316;44.118;27.258;2023-12-20T02:27:15;101211.38;;;6.14;100.00
6565;BME280;3316;44.118;27.258;2023-12-20T02:29:40;101212.06;;;6.58;100.00
6565;BME280;3316;44.118;27.258;2023-12-20T02:32:06;101206.41;;;6.89;100.00
6565;BME280;3316;44.118;27.258;2023-12-20T02:34:31;101168.06;;;6.88;100.00
6565;BME280;3316;44.118;27.258;2023-12-20T02:36:57;101208.66;;;7.26;100.00
6565;BME280;3316;44.118;27.258;2023-12-20T02:39:22;101208.72;;;7.31;100.00
6565;BME280;3316;44.118;27.258;2023-12-20T02:41:48;101197.41;;;7.33;100.00
6565;BME280;3316;44.118;27.258;2023-12-20T02:44:13;101199.88;;;7.19;100.00
6565;BME280;3316;44.118;27.258;2023-12-20T02:46:39;101197.13;;;7.12;100.00
6565;BME280;3316;44.118;27.258;2023-12-20T02:49:06;101192.78;;;7.12;100.00
6565;BME280;3316;44.118;27.258;2023-12-20T02:51:31;101176.00;;;6.97;100.00
6565;BME280;3316;44.118;27.258;2023-12-20T02:53:56;101189.88;;;6.88;100.00
6565;BME280;3316;44.118;27.258;2023-12-20T02:56:22;101174.03;;;6.81;100.00
6565;BME280;3316;44.118;27.258;2023-12-20T02:58:47;101180.19;;;6.83;100.00
6565;BME280;3316;44.118;27.258;2023-12-20T03:01:13;101173.81;;;6.63;100.00
6565;BME280;3316;44.118;27.258;2023-12-20T03:03:39;101169.31;;;6.53;100.00
6565;BME280;3316;44.118;27.258;2023-12-20T03:06:04;101159.50;;;6.38;100.00
6565;BME280;3316;44.118;27.258;2023-12-20T03:08:30;101167.13;;;6.24;100.00
6565;BME280;3316;44.118;27.258;2023-12-20T03:10:55;101163.44;;;6.10;100.00
6565;BME280;3316;44.118;27.258;2023-12-20T03:13:20;101158.00;;;5.98;100.00
6565;BME280;3316;44.118;27.258;2023-12-20T03:15:46;101151.00;;;5.96;100.00
6565;BME280;3316;44.118;27.258;2023-12-20T03:18:11;101146.28;;;5.75;100.00
6565;BME280;3316;44.118;27.258;2023-12-20T03:20:37;101147.63;;;5.55;100.00
6565;BME280;3316;44.118;27.258;2023-12-20T03:23:03;101139.56;;;5.41;100.00
6565;BME280;3316;44.118;27.258;2023-12-20T03:25:28;101123.53;;;5.22;100.00
6565;BME280;3316;44.118;27.258;2023-12-20T03:27:54;101143.63;;;5.26;100.00
6565;BME280;3316;44.118;27.258;2023-12-20T03:30:19;101125.13;;;5.15;100.00
6565;BME280;3316;44.118;27.258;2023-12-20T03:32:45;101134.63;;;5.10;100.00
6565;BME280;3316;44.118;27.258;2023-12-20T03:35:11;101110.09;;;5.01;100.00
6565;BME280;3316;44.118;27.258;2023-12-20T03:37:36;101137.38;;;5.19;100.00
6565;BME280;3316;44.118;27.258;2023-12-20T03:40:02;101136.75;;;5.31;100.00
6565;BME280;3316;44.118;27.258;2023-12-20T03:42:28;101126.06;;;5.19;100.00
6565;BME280;3316;44.118;27.258;2023-12-20T03:44:53;101133.19;;;5.26;100.00
6565;BME280;3316;44.118;27.258;2023-12-20T03:47:19;101109.47;;;5.14;100.00
6565;BME280;3316;44.118;27.258;2023-12-20T03:49:44;101128.78;;;5.25;100.00
6565;BME280;3316;44.118;27.258;2023-12-20T03:52:10;101128.66;;;5.17;100.00
6565;BME280;3316;44.118;27.258;2023-12-20T03:54:36;101125.75;;;5.02;100.00
6565;BME280;3316;44.118;27.258;2023-12-20T03:57:02;101123.03;;;4.98;100.00
6565;BME280;3316;44.118;27.258;2023-12-20T03:59:27;101119.53;;;4.96;100.00
6565;BME280;3316;44.118;27.258;2023-12-20T04:01:52;101114.25;;;4.91;100.00
6565;BME280;3316;44.118;27.258;2023-12-20T04:04:18;101114.88;;;4.80;100.00
6565;BME280;3316;44.118;27.258;2023-12-20T04:06:44;101108.81;;;4.82;100.00
6565;BME280;3316;44.118;27.258;2023-12-20T04:09:09;101076.19;;;4.58;100.00
6565;BME280;3316;44.118;27.258;2023-12-20T04:11:35;101115.56;;;4.71;100.00
6565;BME280;3316;44.118;27.258;2023-12-20T04:14:01;101096.00;;;4.51;100.00
6565;BME280;3316;44.118;27.258;2023-12-20T04:16:26;101102.84;;;4.46;100.00
6565;BME280;3316;44.118;27.258;2023-12-20T04:18:52;101106.25;;;4.42;100.00
6565;BME280;3316;44.118;27.258;2023-12-20T04:21:17;101102.88;;;4.47;100.00
6565;BME280;3316;44.118;27.258;2023-12-20T04:23:43;101100.91;;;4.37;100.00
6565;BME280;3316;44.118;27.258;2023-12-20T04:26:09;101087.38;;;4.13;100.00
6565;BME280;3316;44.118;27.258;2023-12-20T04:28:34;101100.72;;;4.28;100.00
6565;BME280;3316;44.118;27.258;2023-12-20T04:31:00;101102.53;;;4.31;100.00
6565;BME280;3316;44.118;27.258;2023-12-20T04:33:25;101106.00;;;4.31;100.00
6565;BME280;3316;44.118;27.258;2023-12-20T04:35:51;101110.16;;;4.23;100.00
6565;BME280;3316;44.118;27.258;2023-12-20T04:38:16;101103.06;;;4.16;100.00
6565;BME280;3316;44.118;27.258;2023-12-20T04:40:42;101110.09;;;4.20;100.00
6565;BME280;3316;44.118;27.258;2023-12-20T04:43:07;101092.38;;;4.06;100.00
6565;BME280;3316;44.118;27.258;2023-12-20T04:45:34;101107.31;;;4.13;100.00
6565;BME280;3316;44.118;27.258;2023-12-20T04:48:00;101115.81;;;4.06;100.00
6565;BME280;3316;44.118;27.258;2023-12-20T04:50:26;101112.25;;;4.02;100.00
6565;BME280;3316;44.118;27.258;2023-12-20T04:52:51;101113.16;;;4.03;100.00
6565;BME280;3316;44.118;27.258;2023-12-20T04:55:17;101096.22;;;3.84;100.00
6565;BME280;3316;44.118;27.258;2023-12-20T04:57:42;101098.38;;;3.66;100.00
6565;BME280;3316;44.118;27.258;2023-12-20T05:00:08;101102.19;;;3.80;100.00
6565;BME280;3316;44.118;27.258;2023-12-20T05:02:35;101100.41;;;3.78;100.00
6565;BME280;3316;44.118;27.258;2023-12-20T05:05:01;101099.63;;;3.82;100.00
6565;BME280;3316;44.118;27.258;2023-12-20T05:07:26;101082.97;;;3.75;100.00
6565;BME280;3316;44.118;27.258;2023-12-20T05:09:51;101091.56;;;3.73;100.00
6565;BME280;3316;44.118;27.258;2023-12-20T05:12:17;101059.06;;;3.55;100.00
6565;BME280;3316;44.118;27.258;2023-12-20T05:14:42;101101.38;;;3.83;100.00
6565;BME280;3316;44.118;27.258;2023-12-20T05:17:08;101098.09;;;3.90;100.00
6565;BME280;3316;44.118;27.258;2023-12-20T05:19:33;101094.88;;;4.00;100.00
6565;BME280;3316;44.118;27.258;2023-12-20T05:22:01;101085.09;;;3.91;100.00
6565;BME280;3316;44.118;27.258;2023-12-20T05:24:27;101076.84;;;3.73;100.00
6565;BME280;3316;44.118;27.258;2023-12-20T05:26:52;101055.88;;;3.67;100.00
6565;BME280;3316;44.118;27.258;2023-12-20T05:29:18;101095.44;;;3.88;100.00
6565;BME280;3316;44.118;27.258;2023-12-20T05:31:43;101085.72;;;3.81;100.00
6565;BME280;3316;44.118;27.258;2023-12-20T05:34:08;101084.75;;;3.76;100.00
6565;BME280;3316;44.118;27.258;2023-12-20T05:36:34;101083.31;;;3.89;100.00
6565;BME280;3316;44.118;27.258;2023-12-20T05:39:00;101064.72;;;3.74;100.00
6565;BME280;3316;44.118;27.258;2023-12-20T05:41:25;101086.03;;;3.93;100.00
6565;BME280;3316;44.118;27.258;2023-12-20T05:43:51;101077.41;;;3.96;100.00
6565;BME280;3316;44.118;27.258;2023-12-20T05:46:16;101078.06;;;3.87;100.00
6565;BME280;3316;44.118;27.258;2023-12-20T05:48:41;101068.38;;;3.80;100.00
6565;BME280;3316;44.118;27.258;2023-12-20T05:51:07;101038.41;;;3.61;100.00
6565;BME280;3316;44.118;27.258;2023-12-20T05:53:33;101017.69;;;3.65;100.00
6565;BME280;3316;44.118;27.258;2023-12-20T05:55:58;101080.03;;;3.97;100.00
6565;BME280;3316;44.118;27.258;2023-12-20T05:58:24;101064.41;;;3.96;100.00
6565;BME280;3316;44.118;27.258;2023-12-20T06:00:50;101079.59;;;4.16;100.00
6565;BME280;3316;44.118;27.258;2023-12-20T06:03:16;101043.09;;;4.55;100.00
6565;BME280;3316;44.118;27.258;2023-12-20T06:05:42;101037.78;;;4.94;100.00
6565;BME280;3316;44.118;27.258;2023-12-20T06:08:07;101064.72;;;5.90;100.00
6565;BME280;3316;44.118;27.258;2023-12-20T06:10:33;101066.88;;;6.87;100.00
6565;BME280;3316;44.118;27.258;2023-12-20T06:12:58;101075.31;;;8.58;100.00
6565;BME280;3316;44.118;27.258;2023-12-20T06:15:25;101081.72;;;9.52;100.00
6565;BME280;3316;44.118;27.258;2023-12-20T06:17:51;101091.28;;;10.59;100.00
6565;BME280;3316;44.118;27.258;2023-12-20T06:20:16;101082.28;;;12.25;86.55
6565;BME280;3316;44.118;27.258;2023-12-20T06:22:42;101084.78;;;13.16;76.10
6565;BME280;3316;44.118;27.258;2023-12-20T06:25:08;101092.25;;;14.01;66.28
6565;BME280;3316;44.118;27.258;2023-12-20T06:27:34;101095.66;;;14.58;60.87
6565;BME280;3316;44.118;27.258;2023-12-20T06:29:59;101095.81;;;14.00;60.67
6565;BME280;3316;44.118;27.258;2023-12-20T06:32:24;101098.28;;;14.09;60.40
6565;BME280;3316;44.118;27.258;2023-12-20T06:34:50;101094.09;;;14.48;59.44
6565;BME280;3316;44.118;27.258;2023-12-20T06:37:15;101087.97;;;15.30;57.45
6565;BME280;3316;44.118;27.258;2023-12-20T06:39:41;101100.03;;;16.82;53.38
6565;BME280;3316;44.118;27.258;2023-12-20T06:42:06;101093.66;;;18.27;47.85
6565;BME280;3316;44.118;27.258;2023-12-20T06:44:32;101099.13;;;19.44;44.16
6565;BME280;3316;44.118;27.258;2023-12-20T06:46:57;101096.06;;;18.84;43.71
6565;BME280;3316;44.118;27.258;2023-12-20T06:49:24;101084.69;;;18.56;44.49
6565;BME280;3316;44.118;27.258;2023-12-20T06:51:49;101085.66;;;19.91;42.82
6565;BME280;3316;44.118;27.258;2023-12-20T06:54:15;101076.84;;;20.30;40.49
6565;BME280;3316;44.118;27.258;2023-12-20T06:56:40;101091.28;;;21.25;38.67
6565;BME280;3316;44.118;27.258;2023-12-20T06:59:06;101077.47;;;22.06;37.88
6565;BME280;3316;44.118;27.258;2023-12-20T07:01:32;101058.13;;;21.47;37.74
6565;BME280;3316;44.118;27.258;2023-12-20T07:03:57;101074.75;;;22.59;37.26
6565;BME280;3316;44.118;27.258;2023-12-20T07:06:22;101065.50;;;23.45;34.80
6565;BME280;3316;44.118;27.258;2023-12-20T07:08:49;101078.03;;;24.37;33.64
6565;BME280;3316;44.118;27.258;2023-12-20T07:11:14;101069.22;;;23.74;33.14
6565;BME280;3316;44.118;27.258;2023-12-20T07:13:39;101078.16;;;23.74;33.09
6565;BME280;3316;44.118;27.258;2023-12-20T07:16:05;101070.75;;;23.94;33.01
6565;BME280;3316;44.118;27.258;2023-12-20T07:18:31;101072.34;;;23.51;33.72
6565;BME280;3316;44.118;27.258;2023-12-20T07:20:56;101071.28;;;24.59;32.82
6565;BME280;3316;44.118;27.258;2023-12-20T07:23:21;101055.94;;;24.76;32.21
6565;BME280;3316;44.118;27.258;2023-12-20T07:25:47;101042.47;;;24.61;32.29
6565;BME280;3316;44.118;27.258;2023-12-20T07:28:12;101059.00;;;25.40;31.70
6565;BME280;3316;44.118;27.258;2023-12-20T07:30:38;101058.47;;;25.88;31.12
6565;BME280;3316;44.118;27.258;2023-12-20T07:33:03;101053.78;;;26.69;30.47
6565;BME280;3316;44.118;27.258;2023-12-20T07:35:29;101034.13;;;26.41;30.52
6565;BME280;3316;44.118;27.258;2023-12-20T07:37:54;101048.22;;;26.20;30.61
6565;BME280;3316;44.118;27.258;2023-12-20T07:40:20;101046.81;;;25.88;31.45
6565;BME280;3316;44.118;27.258;2023-12-20T07:42:46;101024.84;;;26.33;30.94
6565;BME280;3316;44.118;27.258;2023-12-20T07:45:12;101037.91;;;26.52;30.74
6565;BME280;3316;44.118;27.258;2023-12-20T07:47:37;101042.34;;;26.53;30.68
6565;BME280;3316;44.118;27.258;2023-12-20T07:50:03;101037.00;;;25.87;31.37
6565;BME280;3316;44.118;27.258;2023-12-20T07:52:29;101026.88;;;25.64;31.84
6565;BME280;3316;44.118;27.258;2023-12-20T07:54:55;101016.00;;;25.92;31.54
6565;BME280;3316;44.118;27.258;2023-12-20T07:57:20;101029.81;;;25.73;31.27
6565;BME280;3316;44.118;27.258;2023-12-20T07:59:46;101001.06;;;25.33;32.05
6565;BME280;3316;44.118;27.258;2023-12-20T08:02:11;100999.66;;;25.41;31.41
6565;BME280;3316;44.118;27.258;2023-12-20T08:04:37;101006.22;;;24.53;32.75
6565;BME280;3316;44.118;27.258;2023-12-20T08:07:03;101001.00;;;25.61;32.15
6565;BME280;3316;44.118;27.258;2023-12-20T08:09:29;101002.06;;;26.50;30.37
6565;BME280;3316;44.118;27.258;2023-12-20T08:11:55;100996.25;;;26.30;30.85
6565;BME280;3316;44.118;27.258;2023-12-20T08:14:21;101004.16;;;26.71;30.35
6565;BME280;3316;44.118;27.258;2023-12-20T08:16:48;100998.19;;;27.40;29.75
6565;BME280;3316;44.118;27.258;2023-12-20T08:19:13;101000.25;;;28.07;28.91
6565;BME280;3316;44.118;27.258;2023-12-20T08:21:39;101008.59;;;28.50;28.60
6565;BME280;3316;44.118;27.258;2023-12-20T08:24:05;101002.88;;;27.62;28.91
6565;BME280;3316;44.118;27.258;2023-12-20T08:26:30;101003.06;;;27.82;29.23
6565;BME280;3316;44.118;27.258;2023-12-20T08:28:56;100995.38;;;27.65;29.13
6565;BME280;3316;44.118;27.258;2023-12-20T08:31:21;100964.56;;;27.31;29.10
6565;BME280;3316;44.118;27.258;2023-12-20T08:33:48;100987.91;;;26.96;29.89
6565;BME280;3316;44.118;27.258;2023-12-20T08:36:14;100978.97;;;27.79;28.91
6565;BME280;3316;44.118;27.258;2023-12-20T08:38:39;100963.47;;;28.05;28.57
6565;BME280;3316;44.118;27.258;2023-12-20T08:41:06;100962.97;;;27.76;28.96
6565;BME280;3316;44.118;27.258;2023-12-20T08:43:32;100961.28;;;28.10;28.48
6565;BME280;3316;44.118;27.258;2023-12-20T08:45:57;100953.56;;;28.39;28.17
6565;BME280;3316;44.118;27.258;2023-12-20T08:48:23;100918.50;;;28.26;27.82
6565;BME280;3316;44.118;27.258;2023-12-20T08:50:48;100934.34;;;28.20;27.80
6565;BME280;3316;44.118;27.258;2023-12-20T08:53:20;100923.81;;;28.83;27.24
6565;BME280;3316;44.118;27.258;2023-12-20T08:55:46;100926.47;;;29.27;26.84
6565;BME280;3316;44.118;27.258;2023-12-20T08:58:12;100916.22;;;27.98;28.08
6565;BME280;3316;44.118;27.258;2023-12-20T09:00:37;100916.38;;;27.96;28.09
6565;BME280;3316;44.118;27.258;2023-12-20T09:03:04;100919.22;;;28.06;28.47
6565;BME280;3316;44.118;27.258;2023-12-20T09:05:29;100914.97;;;28.70;27.17
6565;BME280;3316;44.118;27.258;2023-12-20T09:07:55;100909.31;;;28.73;27.04
6565;BME280;3316;44.118;27.258;2023-12-20T09:10:20;100882.19;;;28.06;27.73
6565;BME280;3316;44.118;27.258;2023-12-20T09:12:51;100887.34;;;26.06;29.62
6565;BME280;3316;44.118;27.258;2023-12-20T09:15:24;100890.25;;;25.51;30.45
6565;BME280;3316;44.118;27.258;2023-12-20T09:17:50;100877.16;;;23.95;32.38
6565;BME280;3316;44.118;27.258;2023-12-20T09:20:16;100871.34;;;21.69;35.72
6565;BME280;3316;44.118;27.258;2023-12-20T09:22:41;100864.38;;;21.13;37.48
6565;BME280;3316;44.118;27.258;2023-12-20T09:25:07;100867.47;;;20.31;38.50
6565;BME280;3316;44.118;27.258;2023-12-20T09:27:33;100853.66;;;19.83;39.81
6565;BME280;3316;44.118;27.258;2023-12-20T09:29:58;100844.66;;;20.04;40.04
6565;BME280;3316;44.118;27.258;2023-12-20T09:32:24;100857.59;;;19.75;40.44
6565;BME280;3316;44.118;27.258;2023-12-20T09:34:49;100850.31;;;19.16;41.88
6565;BME280;3316;44.118;27.258;2023-12-20T09:37:15;100846.41;;;18.15;43.93
6565;BME280;3316;44.118;27.258;2023-12-20T09:39:40;100842.75;;;17.45;46.40
6565;BME280;3316;44.118;27.258;2023-12-20T09:42:06;100848.88;;;16.95;48.07
6565;BME280;3316;44.118;27.258;2023-12-20T09:44:32;100834.28;;;16.25;51.16
6565;BME280;3316;44.118;27.258;2023-12-20T09:47:02;100829.03;;;15.64;53.32
6565;BME280;3316;44.118;27.258;2023-12-20T09:49:28;100794.13;;;14.79;56.37
6565;BME280;3316;44.118;27.258;2023-12-20T09:51:55;100804.66;;;14.46;60.97
6565;BME280;3316;44.118;27.258;2023-12-20T09:54:22;100799.72;;;14.31;64.52
6565;BME280;3316;44.118;27.258;2023-12-20T09:56:48;100786.53;;;14.29;67.40
6565;BME280;3316;44.118;27.258;2023-12-20T09:59:14;100801.09;;;14.07;69.91
6565;BME280;3316;44.118;27.258;2023-12-20T10:01:40;100789.81;;;13.99;71.10
6565;BME280;3316;44.118;27.258;2023-12-20T10:04:08;100777.13;;;13.73;75.93
6565;BME280;3316;44.118;27.258;2023-12-20T10:06:36;100787.34;;;13.49;81.68
6565;BME280;3316;44.118;27.258;2023-12-20T10:09:01;100774.88;;;13.55;82.75
6565;BME280;3316;44.118;27.258;2023-12-20T10:11:28;100755.91;;;13.35;84.11
6565;BME280;3316;44.118;27.258;2023-12-20T10:13:59;100770.31;;;13.62;87.85
6565;BME280;3316;44.118;27.258;2023-12-20T10:16:26;100773.94;;;13.58;89.61
6565;BME280;3316;44.118;27.258;2023-12-20T10:18:53;100746.75;;;13.07;90.87
6565;BME280;3316;44.118;27.258;2023-12-20T10:21:19;100755.63;;;13.04;90.20
6565;BME280;3316;44.118;27.258;2023-12-20T10:23:45;100726.69;;;12.95;89.87
6565;BME280;3316;44.118;27.258;2023-12-20T10:26:19;100746.22;;;13.35;89.04
6565;BME280;3316;44.118;27.258;2023-12-20T10:28:45;100755.63;;;13.49;85.63
6565;BME280;3316;44.118;27.258;2023-12-20T10:31:10;100749.25;;;13.59;84.62
6565;BME280;3316;44.118;27.258;2023-12-20T10:33:36;100730.06;;;13.90;85.11
6565;BME280;3316;44.118;27.258;2023-12-20T10:36:02;100711.09;;;14.08;85.10
6565;BME280;3316;44.118;27.258;2023-12-20T10:38:28;100724.72;;;14.32;85.48
6565;BME280;3316;44.118;27.258;2023-12-20T10:40:57;100715.81;;;14.69;83.65
6565;BME280;3316;44.118;27.258;2023-12-20T10:43:28;100709.00;;;15.56;79.28
6565;BME280;3316;44.118;27.258;2023-12-20T10:45:54;100665.47;;;15.63;72.13
6565;BME280;3316;44.118;27.258;2023-12-20T10:48:20;100701.66;;;15.65;74.17
6565;BME280;3316;44.118;27.258;2023-12-20T10:50:47;100698.34;;;15.86;72.54
6565;BME280;3316;44.118;27.258;2023-12-20T10:53:13;100694.19;;;16.05;70.40
6565;BME280;3316;44.118;27.258;2023-12-20T10:55:40;100685.81;;;15.91;70.95
6565;BME280;3316;44.118;27.258;2023-12-20T10:58:07;100676.22;;;15.28;74.24
6565;BME280;3316;44.118;27.258;2023-12-20T11:00:39;100687.75;;;14.94;76.80
6565;BME280;3316;44.118;27.258;2023-12-20T11:03:08;100695.94;;;15.17;75.72
6565;BME280;3316;44.118;27.258;2023-12-20T11:05:49;100686.91;;;15.25;74.07
6565;BME280;3316;44.118;27.258;2023-12-20T11:08:33;100681.63;;;14.92;75.81
6565;BME280;3316;44.118;27.258;2023-12-20T11:13:55;100677.84;;;14.69;76.08
6565;BME280;3316;44.118;27.258;2023-12-20T11:16:23;100633.66;;;14.39;75.78
6565;BME280;3316;44.118;27.258;2023-12-20T11:18:50;100645.44;;;14.24;77.44
6565;BME280;3316;44.118;27.258;2023-12-20T11:21:16;100652.50;;;14.25;78.95
6565;BME280;3316;44.118;27.258;2023-12-20T11:23:42;100656.47;;;14.07;80.59
6565;BME280;3316;44.118;27.258;2023-12-20T11:26:08;100646.97;;;13.99;81.12
6565;BME280;3316;44.118;27.258;2023-12-20T11:28:33;100646.97;;;13.99;80.83
6565;BME280;3316;44.118;27.258;2023-12-20T11:31:01;100627.38;;;13.71;81.93
6565;BME280;3316;44.118;27.258;2023-12-20T11:33:32;100630.13;;;13.66;83.05
6565;BME280;3316;44.118;27.258;2023-12-20T11:36:00;100639.88;;;13.63;82.27
6565;BME280;3316;44.118;27.258;2023-12-20T11:38:26;100608.66;;;13.42;83.65
6565;BME280;3316;44.118;27.258;2023-12-20T11:40:54;100619.44;;;13.71;81.57
6565;BME280;3316;44.118;27.258;2023-12-20T11:43:36;100629.97;;;13.72;80.12
6565;BME280;3316;44.118;27.258;2023-12-20T11:46:03;100621.63;;;13.89;80.77
6565;BME280;3316;44.118;27.258;2023-12-20T11:48:30;100619.81;;;13.92;80.94
6565;BME280;3316;44.118;27.258;2023-12-20T11:50:56;100613.69;;;14.24;80.24
6565;BME280;3316;44.118;27.258;2023-12-20T11:53:22;100594.25;;;14.91;77.37
6565;BME280;3316;44.118;27.258;2023-12-20T11:55:49;100592.94;;;15.35;74.92
6565;BME280;3316;44.118;27.258;2023-12-20T11:58:14;100584.72;;;16.51;70.52
6565;BME280;3316;44.118;27.258;2023-12-20T12:00:42;100591.63;;;18.96;60.30
6565;BME280;3316;44.118;27.258;2023-12-20T12:03:08;100575.06;;;18.90;56.02
6565;BME280;3316;44.118;27.258;2023-12-20T12:05:33;100587.53;;;17.86;59.18
6565;BME280;3316;44.118;27.258;2023-12-20T12:07:59;100584.41;;;16.83;64.54
6565;BME280;3316;44.118;27.258;2023-12-20T12:10:24;100559.81;;;16.03;71.34
6565;BME280;3316;44.118;27.258;2023-12-20T12:12:49;100572.94;;;16.58;70.19
6565;BME280;3316;44.118;27.258;2023-12-20T12:15:15;100559.22;;;16.20;73.15
6565;BME280;3316;44.118;27.258;2023-12-20T12:17:41;100552.78;;;16.53;74.85
6565;BME280;3316;44.118;27.258;2023-12-20T12:20:06;100561.72;;;17.88;68.00
6565;BME280;3316;44.118;27.258;2023-12-20T12:22:33;100548.56;;;18.46;62.61
6565;BME280;3316;44.118;27.258;2023-12-20T12:25:08;100528.84;;;17.45;62.86
6565;BME280;3316;44.118;27.258;2023-12-20T12:27:34;100556.94;;;16.60;65.48
6565;BME280;3316;44.118;27.258;2023-12-20T12:30:04;100559.38;;;15.63;72.42
6565;BME280;3316;44.118;27.258;2023-12-20T12:32:30;100548.50;;;15.13;76.71
6565;BME280;3316;44.118;27.258;2023-12-20T12:34:55;100552.00;;;15.15;79.77
6565;BME280;3316;44.118;27.258;2023-12-20T12:37:22;100529.34;;;15.35;79.25
6565;BME280;3316;44.118;27.258;2023-12-20T12:39:49;100537.97;;;15.12;81.90
6565;BME280;3316;44.118;27.258;2023-12-20T12:42:14;100543.94;;;14.60;86.85
6565;BME280;3316;44.118;27.258;2023-12-20T12:44:40;100534.44;;;14.19;89.52
6565;BME280;3316;44.118;27.258;2023-12-20T12:47:05;100527.59;;;13.77;94.46
6565;BME280;3316;44.118;27.258;2023-12-20T12:49:32;100528.84;;;13.63;100.00
6565;BME280;3316;44.118;27.258;2023-12-20T12:51:57;100530.44;;;13.33;100.00
6565;BME280;3316;44.118;27.258;2023-12-20T12:54:23;100528.19;;;13.16;100.00
6565;BME280;3316;44.118;27.258;2023-12-20T12:56:49;100525.84;;;13.01;100.00